Time;durP1;ratioP1;P1;durP2;ratioP2;P2;SDS_P1;SDS_P2;PMS_P1;PMS_P2;Temp;Humidity;BMP_temperature;BMP_pressure;BME280_temperature;BME280_humidity;BME280_pressure;Samples;Min_cycle;Max_cycle;Signal;HPM_P1;HPM_P2
2024/01/11 00:02:09;;;;;;;8.77;5.57;;;;;;;-5.70;100.00;101791.72;5059341;28;20112;-74
2024/01/11 00:04:35;;;;;;;10.53;5.20;;;;;;;-5.54;100.00;101779.41;5050028;28;20048;-73
2024/01/11 00:07:00;;;;;;;9.80;6.07;;;;;;;-5.46;100.00;101789.50;5044326;28;20044;-74
2024/01/11 00:09:26;;;;;;;11.10;6.10;;;;;;;-5.23;100.00;101800.75;5063380;28;20032;-72
2024/01/11 00:11:51;;;;;;;11.77;6.30;;;;;;;-5.23;100.00;101784.75;5062482;28;20039;-76
2024/01/11 00:14:16;;;;;;;10.07;5.70;;;;;;;-5.11;100.00;101792.88;5060860;28;20128;-73
2024/01/11 00:16:42;;;;;;;11.07;5.57;;;;;;;-5.11;100.00;101787.84;5065585;28;20052;-71
2024/01/11 00:19:09;;;;;;;8.07;4.20;;;;;;;-5.36;100.00;101739.56;5054277;28;20029;-71
2024/01/11 00:21:34;;;;;;;8.83;4.50;;;;;;;-5.08;100.00;101789.09;5055241;28;20075;-71
2024/01/11 00:24:00;;;;;;;10.73;5.07;;;;;;;-5.18;100.00;101763.53;5063419;28;20060;-73
2024/01/11 00:26:25;;;;;;;11.50;5.73;;;;;;;-5.14;100.00;101783.31;5059845;28;20032;-74
2024/01/11 00:28:51;;;;;;;11.37;5.40;;;;;;;-5.40;100.00;101748.34;5072751;28;20035;-71
2024/01/11 00:31:16;;;;;;;8.40;4.83;;;;;;;-5.18;100.00;101777.72;5054340;28;20394;-75
2024/01/11 00:33:42;;;;;;;10.43;5.30;;;;;;;-5.25;100.00;101766.03;5056933;28;20043;-71
2024/01/11 00:36:07;;;;;;;8.67;4.70;;;;;;;-5.20;100.00;101783.50;5062407;28;20078;-71
2024/01/11 00:38:33;;;;;;;11.47;5.67;;;;;;;-5.21;100.00;101778.25;5055395;28;20821;-70
2024/01/11 00:40:58;;;;;;;10.63;5.37;;;;;;;-5.26;100.00;101771.78;5052010;28;20460;-71
2024/01/11 00:43:25;;;;;;;9.80;5.13;;;;;;;-5.49;100.00;101737.19;5060304;28;20041;-73
2024/01/11 00:45:51;;;;;;;9.03;4.80;;;;;;;-5.28;100.00;101761.53;5058911;28;20036;-72
2024/01/11 00:48:16;;;;;;;9.60;4.57;;;;;;;-5.57;100.00;101731.22;5063943;28;20404;-73
2024/01/11 00:50:42;;;;;;;9.60;4.50;;;;;;;-5.58;100.00;101741.09;5064031;28;20029;-72
2024/01/11 00:53:08;;;;;;;10.37;5.27;;;;;;;-5.64;100.00;101737.84;5053441;28;20029;-71
2024/01/11 00:55:33;;;;;;;11.13;5.03;;;;;;;-5.68;100.00;101722.38;5062287;28;20542;-72
2024/01/11 00:57:59;;;;;;;9.53;4.87;;;;;;;-5.86;100.00;101660.69;5062652;28;20048;-74
2024/01/11 01:00:24;;;;;;;10.37;5.73;;;;;;;-5.32;100.00;101739.22;5066845;28;20051;-71
2024/01/11 01:02:50;;;;;;;11.50;4.90;;;;;;;-5.28;100.00;101736.34;5061738;28;20052;-70
2024/01/11 01:05:16;;;;;;;10.57;5.70;;;;;;;-5.23;100.00;101734.41;5060565;28;20411;-71
2024/01/11 01:07:41;;;;;;;15.43;7.30;;;;;;;-5.22;100.00;101739.59;5063105;28;20036;-70
2024/01/11 01:10:08;;;;;;;12.13;6.20;;;;;;;-5.20;100.00;101740.72;5056947;28;20501;-74
2024/01/11 01:12:33;;;;;;;12.90;5.80;;;;;;;-5.30;100.00;101737.78;5063459;28;20074;-70
2024/01/11 01:14:59;;;;;;;12.10;6.40;;;;;;;-5.35;100.00;101741.34;5055368;28;20438;-72
2024/01/11 01:17:24;;;;;;;10.00;5.30;;;;;;;-5.39;100.00;101736.69;5056760;28;20017;-70
2024/01/11 01:19:50;;;;;;;9.87;5.00;;;;;;;-5.44;100.00;101732.72;5055629;28;20114;-70
2024/01/11 01:22:15;;;;;;;9.97;5.60;;;;;;;-5.48;100.00;101726.41;5062341;28;20039;-72
2024/01/11 01:24:41;;;;;;;10.97;5.83;;;;;;;-5.65;100.00;101718.44;5059852;28;20036;-73
2024/01/11 01:27:06;;;;;;;16.13;6.07;;;;;;;-5.61;100.00;101730.66;5062240;28;20047;-72
2024/01/11 01:29:32;;;;;;;11.23;5.80;;;;;;;-5.76;100.00;101732.22;5060997;28;20079;-70
2024/01/11 01:31:57;;;;;;;11.87;6.40;;;;;;;-6.02;100.00;101714.84;5062651;28;20047;-72
2024/01/11 01:34:23;;;;;;;14.93;6.47;;;;;;;-5.92;100.00;101715.25;5055988;28;20029;-75
2024/01/11 01:36:48;;;;;;;14.13;6.57;;;;;;;-5.71;100.00;101726.13;5062092;28;20115;-70
2024/01/11 01:39:14;;;;;;;13.80;7.00;;;;;;;-5.55;100.00;101712.16;5059125;28;20090;-71
2024/01/11 01:41:39;;;;;;;15.90;7.73;;;;;;;-5.55;100.00;101704.63;5061600;28;20056;-72
2024/01/11 01:44:05;;;;;;;19.03;9.70;;;;;;;-5.47;100.00;101695.50;5061497;28;20036;-72
2024/01/11 01:46:31;;;;;;;16.67;9.27;;;;;;;-5.37;100.00;101697.47;5061032;28;20466;-71
2024/01/11 01:48:58;;;;;;;14.03;8.23;;;;;;;-5.36;100.00;101694.25;5058351;28;20078;-72
2024/01/11 01:51:26;;;;;;;18.30;8.53;;;;;;;-5.28;100.00;101692.69;5064378;28;20028;-71
2024/01/11 01:53:54;;;;;;;21.00;9.10;;;;;;;-5.30;100.00;101684.03;5062743;28;20031;-74
2024/01/11 01:56:20;;;;;;;17.10;8.73;;;;;;;-5.46;100.00;101648.56;5059290;28;20119;-71
2024/01/11 01:58:47;;;;;;;17.40;9.73;;;;;;;-5.18;100.00;101682.06;5089017;28;20670;-74
2024/01/11 02:01:15;;;;;;;19.13;10.73;;;;;;;-6.09;100.00;101524.69;5069785;28;20044;-74
2024/01/11 02:03:41;;;;;;;19.03;9.90;;;;;;;-5.24;100.00;101654.56;5056996;28;20040;-74
2024/01/11 02:06:07;;;;;;;18.47;10.10;;;;;;;-5.48;100.00;101618.19;5063735;28;20033;-73
2024/01/11 02:08:34;;;;;;;20.43;9.70;;;;;;;-5.43;100.00;101619.66;5081972;28;20043;-72
2024/01/11 02:11:00;;;;;;;19.30;9.40;;;;;;;-5.40;100.00;101636.72;5075405;28;20097;-73
2024/01/11 02:13:26;;;;;;;18.57;8.83;;;;;;;-5.23;100.00;101648.81;5077243;28;20051;-74
2024/01/11 02:15:52;;;;;;;17.83;9.07;;;;;;;-5.32;100.00;101628.47;5076373;28;20486;-74
2024/01/11 02:18:17;;;;;;;16.43;8.63;;;;;;;-5.28;100.00;101632.25;5083189;28;20044;-73
2024/01/11 02:20:43;;;;;;;20.03;8.60;;;;;;;-5.24;100.00;101647.00;5072490;28;20059;-72
2024/01/11 02:23:15;;;;;;;22.10;9.23;;;;;;;-5.26;100.00;101645.91;5071131;28;20530;-72
2024/01/11 02:25:41;;;;;;;17.03;9.23;;;;;;;-5.30;100.00;101649.69;5077442;28;20036;-72
2024/01/11 02:28:08;;;;;;;13.90;8.53;;;;;;;-5.23;100.00;101639.63;5076803;28;20445;-72
2024/01/11 02:30:34;;;;;;;19.77;9.37;;;;;;;-5.17;100.00;101641.06;5062324;28;20067;-74
2024/01/11 02:33:01;;;;;;;15.70;8.30;;;;;;;-5.43;100.00;101602.03;5061305;28;20490;-73
2024/01/11 02:35:27;;;;;;;17.30;9.30;;;;;;;-5.38;100.00;101610.13;5061785;28;20032;-75
2024/01/11 02:37:54;;;;;;;18.63;9.13;;;;;;;-5.26;100.00;101635.84;5053480;28;20020;-71
2024/01/11 02:40:20;;;;;;;17.20;8.67;;;;;;;-5.30;100.00;101636.22;5054542;28;20067;-71
2024/01/11 02:42:45;;;;;;;18.77;9.50;;;;;;;-5.26;100.00;101629.22;5061441;28;20558;-74
2024/01/11 02:45:12;;;;;;;22.03;9.97;;;;;;;-5.56;100.00;101556.91;5059723;28;20031;-70
2024/01/11 02:47:38;;;;;;;17.47;10.00;;;;;;;-5.51;100.00;101544.84;5061618;28;20487;-76
2024/01/11 02:50:04;;;;;;;20.13;9.53;;;;;;;-4.99;100.00;101618.06;5059104;28;20024;-72
2024/01/11 02:52:30;;;;;;;16.67;9.43;;;;;;;-4.86;100.00;101625.41;5058076;28;20128;-73
2024/01/11 02:54:55;;;;;;;25.20;11.33;;;;;;;-5.33;100.00;101533.53;5075835;28;20123;-72
2024/01/11 02:57:21;;;;;;;21.13;10.83;;;;;;;-4.96;100.00;101597.38;5053393;28;20399;-71
2024/01/11 02:59:46;;;;;;;28.00;11.77;;;;;;;-4.70;100.00;101623.06;5061246;28;20043;-72
2024/01/11 03:02:12;;;;;;;26.97;12.20;;;;;;;-4.65;100.00;101621.97;5059553;28;20434;-72
2024/01/11 03:04:37;;;;;;;21.33;10.73;;;;;;;-4.68;100.00;101623.28;5053254;28;20032;-74
2024/01/11 03:07:03;;;;;;;21.73;10.70;;;;;;;-4.76;100.00;101613.19;5060120;28;20032;-73
2024/01/11 03:09:28;;;;;;;23.73;11.37;;;;;;;-4.80;100.00;101626.13;5052588;28;20032;-72
2024/01/11 03:11:54;;;;;;;21.70;10.20;;;;;;;-4.87;100.00;101619.50;5052028;28;20475;-72
2024/01/11 03:14:19;;;;;;;22.60;10.33;;;;;;;-5.35;100.00;101542.53;5060332;28;20032;-73
2024/01/11 03:16:45;;;;;;;25.07;10.27;;;;;;;-4.98;100.00;101602.22;5059310;28;20434;-71
2024/01/11 03:19:10;;;;;;;21.93;11.07;;;;;;;-4.92;100.00;101627.22;5060489;28;20028;-71
2024/01/11 03:21:43;;;;;;;22.33;9.83;;;;;;;-5.17;100.00;101575.59;5061301;28;20028;-71
2024/01/11 03:24:08;;;;;;;20.47;10.00;;;;;;;-4.95;100.00;101620.19;5057958;28;20062;-72
2024/01/11 03:26:34;;;;;;;19.73;10.77;;;;;;;-5.09;100.00;101593.41;5060687;28;20117;-72
2024/01/11 03:28:59;;;;;;;21.57;10.70;;;;;;;-5.09;100.00;101595.94;5053343;28;20518;-71
2024/01/11 03:31:25;;;;;;;18.87;10.17;;;;;;;-4.97;100.00;101626.69;5053578;28;20025;-73
2024/01/11 03:33:50;;;;;;;18.97;10.63;;;;;;;-4.99;100.00;101614.66;5061147;28;20141;-72
2024/01/11 03:36:16;;;;;;;20.73;11.07;;;;;;;-5.13;100.00;101597.94;5060788;28;20035;-70
2024/01/11 03:38:41;;;;;;;22.37;11.53;;;;;;;-5.22;100.00;101597.72;5052173;28;20464;-75
2024/01/11 03:41:10;;;;;;;21.13;11.23;;;;;;;-5.27;100.00;101587.13;5058659;28;20049;-72
2024/01/11 03:43:36;;;;;;;23.70;11.30;;;;;;;-5.09;100.00;101616.06;5058486;28;20098;-73
2024/01/11 03:46:04;;;;;;;29.03;12.40;;;;;;;-5.09;100.00;101615.19;5060625;28;20412;-73
2024/01/11 03:48:30;;;;;;;21.93;10.90;;;;;;;-5.09;100.00;101615.19;5061643;28;20021;-73
2024/01/11 03:50:55;;;;;;;22.77;10.60;;;;;;;-5.14;100.00;101611.22;5054625;28;20036;-73
2024/01/11 03:53:21;;;;;;;21.80;10.87;;;;;;;-5.35;100.00;101580.28;5060589;28;20017;-73
2024/01/11 03:55:46;;;;;;;30.47;11.73;;;;;;;-5.22;100.00;101610.31;5058827;28;20042;-73
2024/01/11 03:58:12;;;;;;;26.47;11.00;;;;;;;-5.30;100.00;101608.53;5051157;28;20029;-74
2024/01/11 04:00:39;;;;;;;21.73;11.07;;;;;;;-5.43;100.00;101602.03;5060860;28;20512;-74
2024/01/11 04:03:06;;;;;;;25.33;11.43;;;;;;;-5.53;100.00;101587.44;5076754;28;20516;-72
2024/01/11 04:05:31;;;;;;;20.20;10.30;;;;;;;-5.36;100.00;101612.13;5060293;28;20419;-74
2024/01/11 04:07:57;;;;;;;20.57;10.70;;;;;;;-5.37;100.00;101600.25;5054376;28;20040;-74
2024/01/11 04:10:22;;;;;;;25.77;11.83;;;;;;;-5.32;100.00;101600.78;5062039;28;20106;-74
2024/01/11 04:12:48;;;;;;;25.37;11.50;;;;;;;-5.32;100.00;101604.91;5051704;28;20107;-80
2024/01/11 04:15:13;;;;;;;23.93;11.20;;;;;;;-5.33;100.00;101593.03;5052187;28;20029;-71
2024/01/11 04:17:39;;;;;;;29.63;12.20;;;;;;;-5.51;100.00;101570.00;5065542;28;20083;-72
2024/01/11 04:20:06;;;;;;;27.30;13.00;;;;;;;-5.61;100.00;101547.00;5058544;28;20028;-74
2024/01/11 04:22:32;;;;;;;35.43;15.80;;;;;;;-5.47;100.00;101581.34;5058947;28;20033;-71
2024/01/11 04:24:58;;;;;;;29.80;13.83;;;;;;;-5.51;100.00;101582.59;5061237;28;20040;-73
2024/01/11 04:27:23;;;;;;;41.10;19.97;;;;;;;-5.99;100.00;101499.03;5065608;28;20091;-72
2024/01/11 04:29:49;;;;;;;37.27;15.90;;;;;;;-5.58;100.00;101555.81;5057492;28;20029;-72
2024/01/11 04:32:14;;;;;;;30.20;14.00;;;;;;;-5.41;100.00;101585.50;5070036;28;20402;-73
2024/01/11 04:34:40;;;;;;;27.13;12.43;;;;;;;-5.72;100.00;101521.50;5064172;28;20040;-72
2024/01/11 04:37:06;;;;;;;26.80;14.23;;;;;;;-5.27;100.00;101593.75;5062576;28;20021;-75
2024/01/11 04:39:34;;;;;;;22.30;12.67;;;;;;;-5.18;100.00;101607.44;5058086;28;20119;-72
2024/01/11 04:42:00;;;;;;;29.47;14.13;;;;;;;-5.17;100.00;101598.25;5061700;28;20029;-74
2024/01/11 04:44:26;;;;;;;31.57;13.17;;;;;;;-5.25;100.00;101588.19;5053402;28;20029;-72
2024/01/11 04:46:51;;;;;;;19.83;11.07;;;;;;;-5.40;100.00;101568.78;5059585;28;20499;-73
2024/01/11 04:49:17;;;;;;;24.57;11.37;;;;;;;-5.23;100.00;101606.00;5066078;28;20029;-72
2024/01/11 04:51:42;;;;;;;27.13;11.73;;;;;;;-5.35;100.00;101595.38;5063966;28;20065;-76
2024/01/11 04:54:08;;;;;;;25.17;10.03;;;;;;;-5.33;100.00;101599.00;5061619;28;20037;-75
2024/01/11 04:56:34;;;;;;;18.33;9.80;;;;;;;-5.42;100.00;101598.81;5064112;28;20044;-72
2024/01/11 04:58:59;;;;;;;15.83;9.10;;;;;;;-6.06;100.00;101491.47;5056723;28;20103;-76
2024/01/11 05:01:25;;;;;;;21.67;10.00;;;;;;;-5.59;100.00;101581.69;5065111;28;20037;-73
2024/01/11 05:03:51;;;;;;;18.30;9.73;;;;;;;-6.24;100.00;101478.50;5063174;28;20036;-72
2024/01/11 05:06:21;;;;;;;20.93;9.20;;;;;;;-5.64;100.00;101590.31;5062247;28;20404;-73
2024/01/11 05:08:49;;;;;;;19.33;9.90;;;;;;;-5.68;100.00;101598.22;5054283;28;20025;-74
2024/01/11 05:11:19;;;;;;;22.57;9.77;;;;;;;-5.95;100.00;101548.03;5059487;28;20111;-73
2024/01/11 05:13:47;;;;;;;;;;;;;;;-5.60;100.00;101605.03;5053462;28;20447;-78
2024/01/11 05:16:24;;;;;;;27.23;12.23;;;;;;;-5.59;100.00;101599.31;5063375;28;19917;-75
2024/01/11 05:18:51;;;;;;;22.70;11.37;;;;;;;-6.03;100.00;101520.38;5060954;28;20809;-74
2024/01/11 05:21:17;;;;;;;21.43;11.83;;;;;;;-5.50;100.00;101594.47;5057970;28;20033;-72
2024/01/11 05:23:43;;;;;;;22.83;12.73;;;;;;;-5.43;100.00;101591.03;5055840;28;20495;-72
2024/01/11 05:26:09;;;;;;;25.17;13.53;;;;;;;-5.52;100.00;101570.72;5060760;28;20031;-72
2024/01/11 05:28:34;;;;;;;29.90;13.17;;;;;;;-5.52;100.00;101585.81;5063420;28;20033;-72
2024/01/11 05:31:00;;;;;;;29.57;14.83;;;;;;;-5.59;100.00;101575.78;5056541;28;20027;-72
2024/01/11 05:33:26;;;;;;;26.77;12.90;;;;;;;-5.46;100.00;101591.59;5053964;28;20115;-71
2024/01/11 05:35:53;;;;;;;23.60;11.03;;;;;;;-5.85;100.00;101505.66;5059343;28;20020;-72
2024/01/11 05:38:19;;;;;;;22.27;11.10;;;;;;;-5.35;100.00;101587.81;5058717;28;20503;-75
2024/01/11 05:40:45;;;;;;;22.70;11.73;;;;;;;-5.84;100.00;101492.38;5063621;28;20099;-74
2024/01/11 05:43:10;;;;;;;24.80;12.13;;;;;;;-5.32;100.00;101575.63;5061067;28;20120;-72
2024/01/11 05:45:36;;;;;;;22.07;11.73;;;;;;;-5.37;100.00;101582.63;5066589;28;20044;-73
2024/01/11 05:48:01;;;;;;;27.00;12.77;;;;;;;-5.49;100.00;101561.03;5066833;28;20033;-72
2024/01/11 05:50:26;;;;;;;28.63;12.47;;;;;;;-5.45;100.00;101578.28;5059497;28;20035;-73
2024/01/11 05:52:53;;;;;;;30.67;15.73;;;;;;;-5.61;100.00;101549.53;5062233;28;20040;-75
2024/01/11 05:55:19;;;;;;;23.50;13.47;;;;;;;-5.50;100.00;101573.44;5066955;28;20051;-72
2024/01/11 05:57:45;;;;;;;22.50;13.90;;;;;;;-5.56;100.00;101559.44;5059381;28;20471;-73
2024/01/11 06:00:11;;;;;;;28.63;11.90;;;;;;;-6.00;100.00;101476.22;5057628;28;20020;-76
2024/01/11 06:02:37;;;;;;;24.13;12.17;;;;;;;-5.85;100.00;101503.13;5061482;28;20497;-72
2024/01/11 06:05:03;;;;;;;29.83;14.83;;;;;;;-5.48;100.00;101551.84;5062466;28;20096;-72
2024/01/11 06:07:29;;;;;;;48.00;15.53;;;;;;;-5.75;100.00;101508.53;5054106;28;20063;-72
2024/01/11 06:09:54;;;;;;;28.83;13.57;;;;;;;-5.62;100.00;101525.06;5053674;28;20499;-72
2024/01/11 06:12:21;;;;;;;25.40;12.23;;;;;;;-5.99;100.00;101462.91;5062140;28;20028;-72
2024/01/11 06:14:47;;;;;;;24.67;12.67;;;;;;;-5.70;100.00;101511.59;5058827;28;20021;-71
2024/01/11 06:17:12;;;;;;;28.17;14.27;;;;;;;-5.60;100.00;101526.16;5062091;28;20407;-72
2024/01/11 06:19:38;;;;;;;31.90;13.73;;;;;;;-5.47;100.00;101544.53;5063204;28;20124;-72
2024/01/11 06:22:05;;;;;;;23.07;12.47;;;;;;;-5.51;100.00;101532.28;5061108;28;20048;-71
2024/01/11 06:24:31;;;;;;;32.03;15.47;;;;;;;-5.58;100.00;101525.63;5056369;28;20035;-79
2024/01/11 06:26:56;;;;;;;25.00;14.07;;;;;;;-5.92;100.00;101455.34;5061126;28;20115;-74
2024/01/11 06:29:22;;;;;;;29.47;15.60;;;;;;;-5.43;100.00;101531.56;5053466;28;20395;-76
2024/01/11 06:31:47;;;;;;;33.70;17.60;;;;;;;-5.34;100.00;101545.97;5055184;28;20070;-75
2024/01/11 06:34:13;;;;;;;45.17;19.13;;;;;;;-5.39;100.00;101543.78;5063949;28;20043;-75
2024/01/11 06:36:38;;;;;;;49.10;20.73;;;;;;;-5.36;100.00;101546.69;5056386;28;20094;-74
2024/01/11 06:39:04;;;;;;;46.73;21.00;;;;;;;-5.56;100.00;101509.09;5059224;28;20048;-75
2024/01/11 06:41:29;;;;;;;39.93;21.00;;;;;;;-5.44;100.00;101519.69;5058055;28;20037;-74
2024/01/11 06:43:55;;;;;;;40.67;18.50;;;;;;;-5.36;100.00;101533.16;5057846;28;20071;-75
2024/01/11 06:46:23;;;;;;;36.23;16.33;;;;;;;-5.39;100.00;101545.41;5058852;28;20454;-75
2024/01/11 06:48:49;;;;;;;40.90;19.10;;;;;;;-5.57;100.00;101513.94;5062880;28;20047;-76
2024/01/11 06:51:21;;;;;;;36.03;16.93;;;;;;;-5.35;100.00;101545.03;5053176;28;20568;-76
2024/01/11 06:53:47;;;;;;;35.13;17.83;;;;;;;-5.34;100.00;101551.00;5054374;28;20510;-75
2024/01/11 06:56:18;;;;;;;38.13;18.93;;;;;;;-5.46;100.00;101525.28;5059001;28;20060;-73
2024/01/11 06:58:44;;;;;;;37.87;19.30;;;;;;;-5.26;100.00;101551.19;5055811;28;20546;-74
2024/01/11 07:01:10;;;;;;;47.30;20.10;;;;;;;-5.42;100.00;101523.31;5054391;28;20090;-73
2024/01/11 07:03:36;;;;;;;42.63;19.70;;;;;;;-5.21;100.00;101544.13;5053101;28;20032;-72
2024/01/11 07:06:05;;;;;;;46.83;22.33;;;;;;;-5.58;100.00;101476.91;5057338;28;20436;-72
2024/01/11 07:08:32;;;;;;;49.88;24.88;;;;;;;-5.14;100.00;101535.69;5059620;28;20448;-76
2024/01/11 07:10:59;;;;;;;48.17;21.93;;;;;;;-4.99;100.00;101529.03;5064084;28;20020;-73
2024/01/11 07:13:25;;;;;;;41.13;19.47;;;;;;;-4.98;100.00;101528.31;5053542;28;20411;-73
2024/01/11 07:15:51;;;;;;;39.00;19.27;;;;;;;-4.84;100.00;101538.34;5061951;28;20062;-74
2024/01/11 07:18:17;;;;;;;34.10;18.37;;;;;;;-4.87;100.00;101508.66;5057917;28;20033;-73
2024/01/11 07:20:43;;;;;;;41.87;19.03;;;;;;;-4.67;100.00;101514.19;5055602;28;20051;-74
2024/01/11 07:23:09;;;;;;;47.00;20.83;;;;;;;-4.67;100.00;101527.69;5058258;28;20040;-73
2024/01/11 07:25:34;;;;;;;57.13;21.63;;;;;;;-4.78;100.00;101518.00;5062699;28;20028;-72
2024/01/11 07:28:00;;;;;;;59.33;24.23;;;;;;;-4.66;100.00;101524.47;5055548;28;20108;-73
2024/01/11 07:30:26;;;;;;;61.90;24.80;;;;;;;-4.78;100.00;101501.25;5063739;28;20082;-74
2024/01/11 07:32:51;;;;;;;59.23;25.60;;;;;;;-4.50;100.00;101516.13;5061832;28;20040;-75
2024/01/11 07:35:17;;;;;;;54.60;24.87;;;;;;;-4.39;100.00;101515.69;5064076;28;20032;-76
2024/01/11 07:37:42;;;;;;;50.50;21.93;;;;;;;-4.31;100.00;101498.91;5062113;28;20075;-75
2024/01/11 07:40:10;;;;;;;51.10;22.53;;;;;;;-4.11;100.00;101508.72;5062945;28;20134;-74
2024/01/11 07:42:40;;;;;;;51.70;24.17;;;;;;;-4.00;100.00;101503.28;5057222;28;20121;-75
2024/01/11 07:45:09;;;;;;;59.00;23.55;;;;;;;-3.98;100.00;101483.25;5056829;28;20021;-72
2024/01/11 07:47:37;;;;;;;49.30;22.65;;;;;;;-3.65;100.00;101511.31;5061243;28;20033;-76
2024/01/11 07:50:06;;;;;;;61.53;27.10;;;;;;;-3.57;100.00;101500.44;5051613;28;20024;-73
2024/01/11 07:52:32;;;;;;;;;;;;;;;-3.50;100.00;101491.91;5054466;28;20056;-75
2024/01/11 07:55:00;;;;;;;57.30;27.47;;;;;;;-3.81;100.00;101420.41;5061245;28;20002;-72
2024/01/11 07:57:25;;;;;;;69.73;29.43;;;;;;;-3.38;100.00;101484.75;5058051;28;20029;-74
2024/01/11 07:59:51;;;;;;;58.77;27.07;;;;;;;-3.27;100.00;101480.91;5058566;28;20032;-73
2024/01/11 08:02:16;;;;;;;58.97;29.03;;;;;;;-3.69;100.00;101377.06;5065999;28;20029;-71
2024/01/11 08:04:42;;;;;;;54.77;27.17;;;;;;;-3.72;100.00;101337.25;5066893;28;20072;-72
2024/01/11 08:07:07;;;;;;;53.60;27.90;;;;;;;-2.96;100.00;101474.09;5056751;28;20029;-73
2024/01/11 08:09:33;;;;;;;52.27;25.30;;;;;;;-2.88;100.00;101455.56;5056692;28;20025;-72
2024/01/11 08:11:58;;;;;;;52.50;28.57;;;;;;;-2.94;100.00;101453.31;5054741;28;20415;-78
2024/01/11 08:14:24;;;;;;;53.43;26.00;;;;;;;-2.94;100.00;101439.75;5062753;28;20033;-77
2024/01/11 08:16:50;;;;;;;54.83;27.50;;;;;;;-3.16;100.00;101391.13;5065413;28;20462;-74
2024/01/11 08:19:16;;;;;;;53.27;25.77;;;;;;;-2.93;100.00;101404.56;5066887;28;20071;-72
2024/01/11 08:21:42;;;;;;;53.63;26.47;;;;;;;-2.54;100.00;101468.34;5063013;28;20033;-74
2024/01/11 08:24:08;;;;;;;46.20;25.20;;;;;;;-2.52;100.00;101445.03;5059352;28;20533;-72
2024/01/11 08:26:34;;;;;;;52.23;24.90;;;;;;;-2.36;100.00;101462.72;5064038;28;20098;-72
2024/01/11 08:28:59;;;;;;;57.27;24.63;;;;;;;-2.31;100.00;101453.06;5062232;28;20035;-72
2024/01/11 08:31:25;;;;;;;52.27;26.33;;;;;;;-2.25;100.00;101447.78;5058798;28;20037;-73
2024/01/11 08:33:51;;;;;;;50.30;24.60;;;;;;;-2.18;100.00;101461.22;5062783;28;20032;-74
2024/01/11 08:36:16;;;;;;;50.87;25.33;;;;;;;-2.10;100.00;101451.00;5056915;28;20043;-73
2024/01/11 08:38:42;;;;;;;48.00;24.57;;;;;;;-2.12;100.00;101451.72;5056863;28;20025;-72
2024/01/11 08:41:08;;;;;;;49.07;24.50;;;;;;;-2.10;100.00;101435.81;5062159;28;20056;-74
2024/01/11 08:43:33;;;;;;;48.37;24.07;;;;;;;-1.92;100.00;101441.84;5054580;28;20036;-75
2024/01/11 08:45:59;;;;;;;47.33;24.90;;;;;;;-1.80;100.00;101441.47;5058731;28;20068;-73
2024/01/11 08:48:25;;;;;;;50.23;24.50;;;;;;;-1.84;100.00;101426.72;5066252;28;20063;-72
2024/01/11 08:50:50;;;;;;;48.00;24.07;;;;;;;-1.62;100.00;101431.41;5058304;28;20033;-72
2024/01/11 08:53:16;;;;;;;44.07;22.43;;;;;;;-1.60;100.00;101427.41;5062215;28;20406;-72
2024/01/11 08:55:42;;;;;;;50.73;25.07;;;;;;;-1.58;100.00;101409.81;5063876;28;20120;-73
2024/01/11 08:58:10;;;;;;;39.97;22.80;;;;;;;-1.59;100.00;101403.88;5056913;28;20403;-77
2024/01/11 09:00:37;;;;;;;36.47;18.83;;;;;;;-1.89;100.00;101339.28;5062679;28;20039;-72
2024/01/11 09:03:03;;;;;;;43.30;23.73;;;;;;;-1.36;100.00;101408.72;5064054;28;20040;-77
2024/01/11 09:05:29;;;;;;;44.73;22.30;;;;;;;-1.26;100.00;101400.38;5063811;28;20502;-74
2024/01/11 09:07:54;;;;;;;47.20;24.33;;;;;;;-1.26;100.00;101397.84;5058513;28;20052;-73
2024/01/11 09:10:20;;;;;;;50.07;24.47;;;;;;;-1.33;100.00;101355.81;5052747;28;20404;-73
2024/01/11 09:12:46;;;;;;;44.27;23.03;;;;;;;-1.08;100.00;101395.34;5058242;28;20021;-73
2024/01/11 09:15:12;;;;;;;44.93;23.83;;;;;;;-0.87;100.00;101391.50;5057734;28;20029;-77
2024/01/11 09:17:38;;;;;;;42.10;22.80;;;;;;;-0.78;100.00;101384.78;5062289;28;20594;-74
2024/01/11 09:20:04;;;;;;;40.17;22.63;;;;;;;-0.75;100.00;101353.75;5064209;28;20029;-76
2024/01/11 09:22:30;;;;;;;44.50;24.25;;;;;;;-0.36;100.00;101374.44;5057891;28;20040;-73
2024/01/11 09:24:55;;;;;;;39.63;21.63;;;;;;;-0.27;100.00;101365.91;5063144;28;20029;-73
2024/01/11 09:27:21;;;;;;;38.00;22.60;;;;;;;-0.21;100.00;101363.97;5057054;28;20526;-72
2024/01/11 09:29:46;;;;;;;35.30;22.00;;;;;;;0.03;100.00;101359.41;5056358;28;20028;-74
2024/01/11 09:32:12;;;;;;;30.02;18.98;;;;;;;0.03;100.00;101352.66;5069618;28;20572;-74
2024/01/11 09:34:38;;;;;;;30.25;17.23;;;;;;;0.02;100.00;101352.53;5062256;28;20491;-73
2024/01/11 09:37:04;;;;;;;30.60;16.63;;;;;;;-0.06;100.00;101342.53;5063067;28;20035;-71
2024/01/11 09:39:29;;;;;;;30.85;15.02;;;;;;;-0.19;100.00;101329.44;5057977;28;20095;-72
2024/01/11 09:42:06;;;;;;;30.73;16.83;;;;;;;-0.06;100.00;101322.22;5058675;28;20040;-72
2024/01/11 09:44:33;;;;;;;27.70;16.20;;;;;;;0.08;100.00;101309.94;5056583;28;20032;-72
2024/01/11 09:47:01;;;;;;;29.38;15.45;;;;;;;-0.08;100.00;101245.03;5061382;28;20020;-72
2024/01/11 09:49:30;;;;;;;25.27;15.03;;;;;;;0.33;100.00;101308.00;5059051;28;20025;-74
2024/01/11 09:51:56;;;;;;;27.20;14.65;;;;;;;0.59;100.00;101310.34;5064257;28;20113;-73
2024/01/11 09:54:24;;;;;;;26.08;14.98;;;;;;;0.31;100.00;101263.78;5059075;28;20039;-73
2024/01/11 09:56:51;;;;;;;26.88;15.75;;;;;;;0.65;100.00;101289.69;5061268;28;20493;-73
2024/01/11 09:59:24;;;;;;;26.15;15.07;;;;;;;0.51;100.00;101239.28;5057961;28;20035;-73
2024/01/11 10:01:50;;;;;;;24.42;14.52;;;;;;;0.93;100.00;101290.50;5062852;28;20040;-73
2024/01/11 10:04:16;;;;;;;25.00;14.02;;;;;;;0.86;100.00;101239.88;5056505;28;20029;-72
2024/01/11 10:06:43;;;;;;;24.77;15.02;;;;;;;1.30;100.00;101277.59;5054850;28;20037;-73
2024/01/11 10:09:09;;;;;;;24.77;15.88;;;;;;;1.44;100.00;101274.56;5062054;28;20036;-73
2024/01/11 10:11:36;;;;;;;27.73;15.60;;;;;;;1.55;100.00;101260.25;5043149;28;20091;-73
2024/01/11 10:14:02;;;;;;;27.40;16.63;;;;;;;1.72;100.00;101274.41;5054101;28;20123;-73
2024/01/11 10:16:31;;;;;;;24.88;14.85;;;;;;;1.75;100.00;101264.47;5047642;28;20456;-76
2024/01/11 10:18:57;;;;;;;28.50;15.13;;;;;;;1.65;100.00;101250.88;5063408;28;20051;-72
2024/01/11 10:21:23;;;;;;;31.33;20.17;;;;;;;1.94;100.00;101272.06;5059177;28;20099;-73
2024/01/11 10:23:50;;;;;;;27.42;16.00;;;;;;;2.06;100.00;101266.19;5055432;28;20119;-72
2024/01/11 10:26:17;;;;;;;24.80;16.15;;;;;;;2.17;100.00;101259.44;5077370;28;20029;-72
2024/01/11 10:28:44;;;;;;;22.05;14.00;;;;;;;2.07;98.93;101243.41;5062788;28;20025;-71
2024/01/11 10:31:10;;;;;;;23.10;13.75;;;;;;;2.04;98.53;101227.84;5063646;28;20372;-72
2024/01/11 10:33:36;;;;;;;23.23;13.73;;;;;;;1.41;97.81;101119.13;5062873;28;20036;-75
2024/01/11 10:36:01;;;;;;;22.40;13.32;;;;;;;2.12;97.95;101250.53;5056645;28;20036;-73
2024/01/11 10:38:35;;;;;;;40.55;29.92;;;;;;;1.80;97.89;101238.53;5059422;28;20028;-72
2024/01/11 10:41:04;;;;;;;67.25;38.47;;;;;;;2.08;97.97;101245.19;5056646;28;20143;-76
2024/01/11 10:43:31;;;;;;;22.73;13.88;;;;;;;2.29;97.45;101234.97;5055839;28;20414;-72
2024/01/11 10:46:03;;;;;;;19.83;11.43;;;;;;;2.38;96.14;101209.34;5060720;28;20032;-73
2024/01/11 10:48:32;;;;;;;23.42;13.77;;;;;;;2.39;94.87;101226.44;5063333;28;20028;-73
2024/01/11 10:51:05;;;;;;;22.75;16.70;;;;;;;2.45;95.08;101223.50;5052788;28;20037;-72
2024/01/11 10:53:48;;;;;;;21.48;14.30;;;;;;;1.94;95.89;101138.72;5053914;28;20091;-72
2024/01/11 10:56:18;;;;;;;20.98;11.93;;;;;;;2.35;94.61;101214.22;5058013;28;20040;-73
2024/01/11 10:58:46;;;;;;;17.98;11.48;;;;;;;2.44;94.13;101199.66;5056152;28;20060;-72
2024/01/11 11:01:12;;;;;;;19.38;12.00;;;;;;;2.51;92.68;101198.53;5054158;28;20067;-72
2024/01/11 11:03:39;;;;;;;18.25;11.02;;;;;;;2.33;92.52;101201.38;5053494;28;20403;-71